Time;durP1;ratioP1;P1;durP2;ratioP2;P2;SDS_P1;SDS_P2;PMS_P1;PMS_P2;Temp;Humidity;BMP_temperature;BMP_pressure;BME280_temperature;BME280_humidity;BME280_pressure;Samples;Min_cycle;Max_cycle;Signal;HPM_P1;HPM_P2
2022/10/04 00:00:42;;;;;;;;;;;12.10;99.90;;;;;;5070984;28;19916;-74
2022/10/04 00:03:18;;;;;;;;;;;12.00;99.90;;;;;;5059077;28;19920;-77
2022/10/04 00:05:48;;;;;;;;;;;11.90;99.90;;;;;;5070080;28;19951;-75
2022/10/04 00:08:36;;;;;;;;;;;11.90;99.90;;;;;;5074191;28;19916;-75
2022/10/04 00:11:02;;;;;;;;;;;11.90;99.90;;;;;;5066638;28;20290;-75
2022/10/04 00:13:28;;;;;;;;;;;11.90;99.90;;;;;;5063646;28;19999;-75
2022/10/04 00:15:53;;;;;;;;;;;11.90;99.90;;;;;;5067852;28;19985;-75
2022/10/04 00:18:30;;;;;;;;;;;11.90;99.90;;;;;;5071732;28;20529;-75
2022/10/04 00:20:57;;;;;;;;;;;12.00;99.90;;;;;;5089229;28;20007;-75
2022/10/04 00:23:29;;;;;;;;;;;11.90;99.90;;;;;;5064135;28;19943;-76
2022/10/04 00:25:59;;;;;;;;;;;11.90;99.90;;;;;;5072922;28;19982;-75
2022/10/04 00:28:24;;;;;;;;;;;11.90;99.90;;;;;;5070416;28;19944;-75
2022/10/04 00:31:02;;;;;;;;;;;11.90;99.90;;;;;;5072523;28;19955;-75
2022/10/04 00:33:36;;;;;;;;;;;11.90;99.90;;;;;;5070312;28;19923;-75
2022/10/04 00:36:22;;;;;;;;;;;12.00;99.90;;;;;;5071523;28;20192;-75
2022/10/04 00:39:03;;;;;;;;;;;12.00;99.90;;;;;;5072143;28;19954;-75
2022/10/04 00:41:36;;;;;;;;;;;12.00;99.90;;;;;;5069980;28;20003;-76
2022/10/04 00:44:04;;;;;;;;;;;12.00;99.90;;;;;;5067718;28;19920;-75
2022/10/04 00:46:30;;;;;;;;;;;12.10;99.90;;;;;;5066113;28;19919;-75
2022/10/04 00:49:03;;;;;;;;;;;12.10;99.90;;;;;;5073189;28;19917;-75
2022/10/04 00:51:37;;;;;;;;;;;12.10;99.90;;;;;;5070289;28;19962;-75
2022/10/04 00:54:20;;;;;;;;;;;12.10;99.90;;;;;;5072634;28;20015;-76
2022/10/04 00:56:54;;;;;;;;;;;12.10;99.90;;;;;;5074395;28;20300;-75
2022/10/04 00:59:20;;;;;;;;;;;12.10;99.90;;;;;;5073352;28;19963;-75
2022/10/04 01:01:48;;;;;;;;;;;12.10;99.90;;;;;;5072263;28;20322;-75
2022/10/04 01:04:23;;;;;;;;;;;12.10;99.90;;;;;;5082010;28;20410;-75
2022/10/04 01:06:50;;;;;;;;;;;12.10;99.90;;;;;;5073116;28;19916;-75
2022/10/04 01:09:15;;;;;;;;;;;12.00;99.90;;;;;;5062496;28;19946;-75
2022/10/04 01:11:43;;;;;;;;;;;11.90;99.90;;;;;;5069915;28;19948;-75
2022/10/04 01:14:19;;;;;;;;;;;11.90;99.90;;;;;;5071451;28;19916;-76
2022/10/04 01:16:45;;;;;;;;;;;11.80;99.90;;;;;;5072610;28;19916;-76
2022/10/04 01:19:25;;;;;;;;;;;11.80;99.90;;;;;;5078444;28;20357;-75
2022/10/04 01:21:58;;;;;;;;;;;11.80;99.90;;;;;;5077193;28;19926;-75
2022/10/04 01:24:24;;;;;;;;;;;11.80;99.90;;;;;;5064114;28;19925;-75
2022/10/04 01:26:49;;;;;;;;;;;11.80;99.90;;;;;;5071926;28;19962;-75
2022/10/04 01:29:25;;;;;;;;;;;11.80;99.90;;;;;;5064009;28;19913;-75
2022/10/04 01:31:52;;;;;;;;;;;11.80;99.90;;;;;;5071000;28;19963;-75
2022/10/04 01:34:19;;;;;;;;;;;11.80;99.90;;;;;;5077994;28;20324;-75
2022/10/04 01:36:46;;;;;;;;;;;11.90;99.90;;;;;;5073228;28;19940;-75
2022/10/04 01:39:12;;;;;;;;;;;11.90;99.90;;;;;;5073423;28;19917;-75
2022/10/04 01:41:57;;;;;;;;;;;11.90;99.90;;;;;;5067797;28;19970;-75
2022/10/04 01:44:28;;;;;;;;;;;11.80;99.90;;;;;;5071964;28;20559;-75
2022/10/04 01:46:55;;;;;;;;;;;11.80;99.90;;;;;;5084005;28;19920;-75
2022/10/04 01:49:24;;;;;;;;;;;11.80;99.90;;;;;;5076409;28;19912;-75
2022/10/04 01:52:00;;;;;;;;;;;11.80;99.90;;;;;;5061584;28;20007;-75
2022/10/04 01:54:37;;;;;;;;;;;11.70;99.90;;;;;;5071056;28;19979;-75
2022/10/04 01:57:29;;;;;;;;;;;11.70;99.90;;;;;;5058181;28;19921;-75
2022/10/04 02:00:00;;;;;;;;;;;11.60;99.90;;;;;;5066489;28;20016;-75
2022/10/04 02:02:35;;;;;;;;;;;11.60;99.90;;;;;;5079874;28;19942;-75
2022/10/04 02:05:01;;;;;;;;;;;11.60;99.90;;;;;;5083729;28;20299;-75
2022/10/04 02:07:30;;;;;;;;;;;11.60;99.90;;;;;;5082659;28;20019;-75
2022/10/04 02:09:58;;;;;;;;;;;11.60;99.90;;;;;;5073723;28;19958;-75
2022/10/04 02:12:25;;;;;;;;;;;11.60;99.90;;;;;;5064384;28;19963;-75
2022/10/04 02:14:52;;;;;;;;;;;11.60;99.90;;;;;;5071330;28;20307;-75
2022/10/04 02:17:22;;;;;;;;;;;11.60;99.90;;;;;;5066038;28;20004;-75
2022/10/04 02:19:49;;;;;;;;;;;11.50;99.90;;;;;;5071059;28;19939;-77
2022/10/04 02:22:15;;;;;;;;;;;11.50;99.90;;;;;;5077230;28;19927;-75
2022/10/04 02:24:46;;;;;;;;;;;11.40;99.90;;;;;;5073245;28;20282;-76
2022/10/04 02:27:12;;;;;;;;;;;11.40;99.90;;;;;;5079607;28;20342;-75
2022/10/04 02:29:38;;;;;;;;;;;11.30;99.90;;;;;;5083389;28;20298;-75
2022/10/04 02:34:50;;;;;;;;;;;11.20;99.90;;;;;;5073067;28;20066;-76
2022/10/04 02:37:17;;;;;;;;;;;11.10;99.90;;;;;;5075421;28;19930;-75
2022/10/04 02:39:47;;;;;;;;;;;11.10;99.90;;;;;;5090341;28;19917;-76
2022/10/04 02:42:19;;;;;;;;;;;11.10;99.90;;;;;;5084348;28;19939;-75
2022/10/04 02:44:49;;;;;;;;;;;11.10;99.90;;;;;;5068898;28;20370;-75
2022/10/04 02:47:19;;;;;;;;;;;11.10;99.90;;;;;;5087090;28;19908;-76
2022/10/04 02:49:53;;;;;;;;;;;11.10;99.90;;;;;;5083704;28;20314;-75
2022/10/04 02:52:23;;;;;;;;;;;11.10;99.90;;;;;;5091173;28;20003;-75
2022/10/04 02:55:01;;;;;;;;;;;11.00;99.90;;;;;;5077169;28;19962;-76
2022/10/04 02:57:28;;;;;;;;;;;11.00;99.90;;;;;;5082919;28;19951;-76
2022/10/04 03:00:01;;;;;;;;;;;11.00;99.90;;;;;;5060229;28;19921;-77
2022/10/04 03:02:28;;;;;;;;;;;10.90;99.90;;;;;;5069605;28;19924;-76
2022/10/04 03:05:04;;;;;;;;;;;10.90;99.90;;;;;;5073556;28;20319;-77
2022/10/04 03:07:31;;;;;;;;;;;10.90;99.90;;;;;;5072610;28;19916;-76
2022/10/04 03:09:57;;;;;;;;;;;10.80;99.90;;;;;;5084655;28;19919;-76
2022/10/04 03:12:22;;;;;;;;;;;10.80;99.90;;;;;;5067409;28;19912;-77
2022/10/04 03:14:48;;;;;;;;;;;10.70;99.90;;;;;;5056303;28;20270;-77
2022/10/04 03:17:15;;;;;;;;;;;10.70;99.90;;;;;;5075671;28;19913;-76
2022/10/04 03:19:40;;;;;;;;;;;10.70;99.90;;;;;;5080190;28;19943;-76
2022/10/04 03:22:07;;;;;;;;;;;10.60;99.90;;;;;;5073316;28;20299;-76
2022/10/04 03:24:36;;;;;;;;;;;10.60;99.90;;;;;;5052052;28;20207;-77
2022/10/04 03:27:03;;;;;;;;;;;10.60;99.90;;;;;;5073038;28;19917;-77
2022/10/04 03:29:31;;;;;;;;;;;10.60;99.90;;;;;;5071728;28;19916;-77
2022/10/04 03:31:57;;;;;;;;;;;10.50;99.90;;;;;;5093189;28;19943;-77
2022/10/04 03:34:25;;;;;;;;;;;10.40;99.90;;;;;;5073360;28;19917;-77
2022/10/04 03:36:52;;;;;;;;;;;10.40;99.90;;;;;;5072553;28;19916;-77
2022/10/04 03:39:24;;;;;;;;;;;10.40;99.90;;;;;;5075197;28;19912;-77
2022/10/04 03:41:50;;;;;;;;;;;10.30;99.90;;;;;;5070301;28;19920;-77
2022/10/04 03:44:16;;;;;;;;;;;10.40;99.90;;;;;;5088458;28;19915;-77
2022/10/04 03:46:43;;;;;;;;;;;10.30;99.90;;;;;;5076000;28;19924;-77
2022/10/04 03:49:11;;;;;;;;;;;10.30;99.90;;;;;;5070937;28;19916;-77
2022/10/04 03:51:42;;;;;;;;;;;10.20;99.90;;;;;;5088034;28;19999;-78
2022/10/04 03:54:10;;;;;;;;;;;10.20;99.90;;;;;;5087538;28;19945;-77
2022/10/04 03:56:36;;;;;;;;;;;10.30;99.90;;;;;;5082369;28;19912;-77
2022/10/04 03:59:03;;;;;;;;;;;10.30;99.90;;;;;;5078795;28;20349;-76
2022/10/04 04:01:34;;;;;;;;;;;10.20;99.90;;;;;;5077745;28;19965;-76
2022/10/04 04:04:02;;;;;;;;;;;10.10;99.90;;;;;;5084105;28;19913;-76
2022/10/04 04:06:51;;;;;;;;;;;10.10;99.90;;;;;;5062624;28;20023;-76
2022/10/04 04:09:38;;;;;;;;;;;10.00;99.90;;;;;;5060451;28;19935;-76
2022/10/04 04:12:08;;;;;;;;;;;10.10;99.90;;;;;;5041297;28;19916;-77
2022/10/04 04:14:35;;;;;;;;;;;10.00;99.90;;;;;;5071458;28;19954;-77
2022/10/04 04:17:34;;;;;;;;;;;9.90;99.90;;;;;;5067606;28;20357;-77
2022/10/04 04:20:02;;;;;;;;;;;9.80;99.90;;;;;;5032596;28;19921;-77
2022/10/04 04:22:30;;;;;;;;;;;9.80;99.90;;;;;;5020166;28;20003;-76
2022/10/04 04:25:10;;;;;;;;;;;9.80;99.90;;;;;;5031380;28;19917;-77
2022/10/04 04:27:38;;;;;;;;;;;9.80;99.90;;;;;;5030048;28;20304;-76
2022/10/04 04:30:24;;;;;;;;;;;9.80;99.90;;;;;;5008018;28;19913;-77
2022/10/04 04:32:51;;;;;;;;;;;9.80;99.90;;;;;;5030238;28;19917;-77
2022/10/04 04:35:21;;;;;;;;;;;9.80;99.90;;;;;;5031869;28;19937;-77
2022/10/04 04:38:01;;;;;;;;;;;9.70;99.90;;;;;;5031820;28;20367;-77
2022/10/04 04:40:26;;;;;;;;;;;9.60;99.90;;;;;;5014166;28;20451;-78
2022/10/04 04:42:56;;;;;;;;;;;9.60;99.90;;;;;;5031892;28;19960;-78
2022/10/04 04:45:24;;;;;;;;;;;9.60;99.90;;;;;;5032470;28;19921;-77
2022/10/04 04:47:51;;;;;;;;;;;9.60;99.90;;;;;;5015844;28;19913;-77
2022/10/04 04:50:19;;;;;;;;;;;9.60;99.90;;;;;;5014537;28;20015;-78
2022/10/04 04:52:47;;;;;;;;;;;9.60;99.90;;;;;;5007160;28;20016;-78
2022/10/04 04:55:17;;;;;;;;;;;9.50;99.90;;;;;;5029099;28;19913;-77
2022/10/04 04:57:43;;;;;;;;;;;9.50;99.90;;;;;;5077940;28;19915;-77
2022/10/04 05:00:16;;;;;;;;;;;9.50;99.90;;;;;;5069041;28;19913;-75
2022/10/04 05:02:49;;;;;;;;;;;9.50;99.90;;;;;;5063207;28;19951;-79
2022/10/04 05:05:14;;;;;;;;;;;9.50;99.90;;;;;;5077666;28;20354;-78
2022/10/04 05:07:43;;;;;;;;;;;9.50;99.90;;;;;;5082081;28;19916;-78
2022/10/04 05:10:28;;;;;;;;;;;9.50;99.90;;;;;;5085509;28;19916;-78
2022/10/04 05:12:54;;;;;;;;;;;9.50;99.90;;;;;;5085083;28;20384;-77
2022/10/04 05:15:21;;;;;;;;;;;9.40;99.90;;;;;;5091304;28;20008;-78
2022/10/04 05:17:47;;;;;;;;;;;9.40;99.90;;;;;;5091589;28;20010;-79
2022/10/04 05:20:14;;;;;;;;;;;9.50;99.90;;;;;;5085512;28;20010;-78
2022/10/04 05:22:42;;;;;;;;;;;9.50;99.90;;;;;;5087775;28;20324;-79
2022/10/04 05:25:14;;;;;;;;;;;9.60;99.90;;;;;;5089527;28;19973;-78
2022/10/04 05:27:43;;;;;;;;;;;9.50;99.90;;;;;;5073967;28;20308;-79
2022/10/04 05:30:27;;;;;;;;;;;9.50;99.90;;;;;;5081827;28;19932;-78
2022/10/04 05:32:59;;;;;;;;;;;9.50;99.90;;;;;;5079136;28;20007;-78
2022/10/04 05:35:26;;;;;;;;;;;9.50;99.90;;;;;;5092264;28;19909;-76
2022/10/04 05:38:00;;;;;;;;;;;9.60;99.90;;;;;;5084898;28;19912;-78
2022/10/04 05:40:45;;;;;;;;;;;9.50;99.90;;;;;;5092637;28;19989;-78
2022/10/04 05:43:25;;;;;;;;;;;9.50;99.90;;;;;;5093014;28;19923;-79
2022/10/04 05:46:09;;;;;;;;;;;9.50;99.90;;;;;;5086722;28;19915;-78
2022/10/04 05:48:36;;;;;;;;;;;9.50;99.90;;;;;;5088049;28;19912;-78
2022/10/04 05:51:11;;;;;;;;;;;9.60;99.90;;;;;;5092010;28;19908;-79
2022/10/04 05:53:37;;;;;;;;;;;9.60;99.90;;;;;;5092638;28;19912;-78
2022/10/04 05:56:15;;;;;;;;;;;9.60;99.90;;;;;;5090509;28;19944;-79
2022/10/04 05:59:00;;;;;;;;;;;9.60;99.90;;;;;;5087329;28;19920;-78
2022/10/04 06:01:32;;;;;;;;;;;9.60;99.90;;;;;;5086403;28;19916;-76
2022/10/04 06:04:17;;;;;;;;;;;9.50;99.90;;;;;;5074285;28;19927;-76
2022/10/04 06:06:48;;;;;;;;;;;9.50;99.90;;;;;;5087997;28;19923;-78
2022/10/04 06:09:14;;;;;;;;;;;9.40;99.90;;;;;;5093473;28;19948;-78
2022/10/04 06:11:51;;;;;;;;;;;9.40;99.90;;;;;;5090465;28;19990;-77
2022/10/04 06:14:32;;;;;;;;;;;9.40;99.90;;;;;;5078387;28;20319;-78
2022/10/04 06:16:58;;;;;;;;;;;9.30;99.90;;;;;;5082397;28;19912;-78
2022/10/04 06:19:24;;;;;;;;;;;9.30;99.90;;;;;;5087212;28;20010;-76
2022/10/04 06:21:52;;;;;;;;;;;9.30;99.90;;;;;;5091195;28;19938;-76
2022/10/04 06:24:20;;;;;;;;;;;9.30;99.90;;;;;;5084352;28;19928;-77
2022/10/04 06:26:48;;;;;;;;;;;9.30;99.90;;;;;;5081454;28;19923;-77
2022/10/04 06:29:19;;;;;;;;;;;9.40;99.90;;;;;;5082762;28;19912;-76
2022/10/04 06:31:51;;;;;;;;;;;9.50;99.90;;;;;;5092980;28;19961;-77
2022/10/04 06:34:20;;;;;;;;;;;9.50;99.90;;;;;;5084625;28;19962;-77
2022/10/04 06:37:11;;;;;;;;;;;9.50;99.90;;;;;;5073475;28;19951;-76
2022/10/04 06:39:43;;;;;;;;;;;9.60;99.90;;;;;;5089413;28;19931;-76
2022/10/04 06:42:24;;;;;;;;;;;9.70;99.90;;;;;;5086795;28;19938;-76
2022/10/04 06:44:49;;;;;;;;;;;9.80;99.90;;;;;;5085400;28;20007;-77
2022/10/04 06:47:20;;;;;;;;;;;9.90;99.90;;;;;;5093045;28;19999;-76
2022/10/04 06:50:01;;;;;;;;;;;10.10;99.90;;;;;;5076714;28;19916;-78
2022/10/04 06:52:32;;;;;;;;;;;10.30;99.90;;;;;;5073430;28;20201;-79
2022/10/04 06:55:17;;;;;;;;;;;10.50;99.90;;;;;;5067925;28;19926;-77
2022/10/04 06:58:07;;;;;;;;;;;10.80;99.90;;;;;;5075312;28;20265;-76
2022/10/04 07:00:47;;;;;;;;;;;11.20;99.90;;;;;;5075741;28;19962;-78
2022/10/04 07:03:23;;;;;;;;;;;11.30;99.90;;;;;;5071173;28;19964;-76
2022/10/04 07:06:03;;;;;;;;;;;11.40;99.90;;;;;;5073064;28;19917;-78
2022/10/04 07:08:35;;;;;;;;;;;11.20;99.90;;;;;;5074392;28;19912;-79
2022/10/04 07:11:16;;;;;;;;;;;11.00;99.90;;;;;;5064504;28;19917;-77
2022/10/04 07:13:48;;;;;;;;;;;11.00;99.90;;;;;;5068491;28;19920;-77
2022/10/04 07:16:23;;;;;;;;;;;11.00;99.90;;;;;;5074258;28;19917;-78
2022/10/04 07:19:08;;;;;;;;;;;11.10;99.90;;;;;;5078564;28;19990;-78
2022/10/04 07:21:54;;;;;;;;;;;11.10;99.90;;;;;;5077098;28;20244;-78
2022/10/04 07:24:25;;;;;;;;;;;11.20;99.90;;;;;;5075862;28;19912;-78
2022/10/04 07:26:51;;;;;;;;;;;11.50;99.90;;;;;;5079184;28;20379;-76
2022/10/04 07:29:20;;;;;;;;;;;12.30;99.90;;;;;;5080585;28;20303;-77
2022/10/04 07:32:03;;;;;;;;;;;13.70;99.90;;;;;;5074541;28;19912;-76
2022/10/04 07:34:30;;;;;;;;;;;14.80;99.90;;;;;;5071933;28;19920;-75
2022/10/04 07:36:58;;;;;;;;;;;15.50;99.90;;;;;;5073023;28;19916;-74
2022/10/04 07:39:24;;;;;;;;;;;15.20;99.90;;;;;;5074591;28;20005;-76
2022/10/04 07:41:55;;;;;;;;;;;14.80;99.90;;;;;;5071226;28;19952;-76
2022/10/04 07:44:29;;;;;;;;;;;14.40;99.90;;;;;;5072731;28;19962;-76
2022/10/04 07:46:58;;;;;;;;;;;14.00;99.90;;;;;;5073590;28;19908;-76
2022/10/04 07:49:24;;;;;;;;;;;13.70;99.90;;;;;;5070316;28;20041;-75
2022/10/04 07:51:50;;;;;;;;;;;13.50;99.90;;;;;;5076089;28;19908;-74
2022/10/04 07:54:20;;;;;;;;;;;13.50;99.90;;;;;;5078638;28;20215;-76
2022/10/04 07:56:50;;;;;;;;;;;13.40;99.90;;;;;;5069654;28;19932;-75
2022/10/04 07:59:21;;;;;;;;;;;13.40;99.90;;;;;;5072154;28;20311;-76
2022/10/04 08:02:00;;;;;;;;;;;13.40;99.90;;;;;;5070955;28;19919;-76
2022/10/04 08:04:44;;;;;;;;;;;13.40;99.90;;;;;;5059828;28;19936;-75
2022/10/04 08:07:16;;;;;;;;;;;13.50;99.90;;;;;;5069421;28;19912;-75
2022/10/04 08:09:47;;;;;;;;;;;13.60;99.90;;;;;;5072509;28;20346;-76
2022/10/04 08:12:31;;;;;;;;;;;13.70;99.90;;;;;;5071549;28;19909;-76
2022/10/04 08:15:15;;;;;;;;;;;13.90;99.90;;;;;;5069976;28;19909;-76
2022/10/04 08:17:47;;;;;;;;;;;14.20;99.90;;;;;;5059627;28;19916;-75
2022/10/04 08:20:16;;;;;;;;;;;14.50;99.90;;;;;;5076748;28;19920;-75
2022/10/04 08:22:57;;;;;;;;;;;14.60;99.90;;;;;;5078811;28;19974;-76
2022/10/04 08:25:41;;;;;;;;;;;14.80;99.90;;;;;;5074804;28;19912;-75
2022/10/04 08:31:12;;;;;;;;;;;14.90;99.90;;;;;;5083145;28;19923;-76
2022/10/04 08:33:41;;;;;;;;;;;14.90;99.90;;;;;;5084954;28;19916;-75
2022/10/04 08:36:25;;;;;;;;;;;15.10;99.90;;;;;;5080545;28;20297;-75
2022/10/04 08:38:58;;;;;;;;;;;15.20;99.90;;;;;;5080909;28;19923;-75
2022/10/04 08:41:42;;;;;;;;;;;15.40;99.90;;;;;;5081478;28;20365;-75
2022/10/04 08:44:09;;;;;;;;;;;15.60;99.90;;;;;;5080292;28;19916;-74
2022/10/04 08:46:35;;;;;;;;;;;15.70;99.90;;;;;;5074410;28;19915;-75
2022/10/04 08:49:20;;;;;;;;;;;15.60;99.90;;;;;;5083481;28;19909;-75
2022/10/04 08:52:04;;;;;;;;;;;15.50;99.90;;;;;;5068582;28;19922;-75
2022/10/04 08:54:48;;;;;;;;;;;15.30;99.90;;;;;;5055400;28;20330;-75
2022/10/04 08:57:29;;;;;;;;;;;15.20;99.90;;;;;;5066667;28;19912;-75
2022/10/04 09:00:07;;;;;;;;;;;15.20;99.90;;;;;;5066743;28;19916;-75
2022/10/04 09:02:33;;;;;;;;;;;15.30;99.90;;;;;;5073000;28;19917;-75
2022/10/04 09:05:17;;;;;;;;;;;15.50;99.90;;;;;;5073520;28;20299;-74
2022/10/04 09:07:58;;;;;;;;;;;15.60;99.90;;;;;;5065532;28;20020;-75
2022/10/04 09:10:33;;;;;;;;;;;15.80;99.90;;;;;;5069805;28;19917;-75
2022/10/04 09:13:17;;;;;;;;;;;16.10;99.90;;;;;;5073865;28;19919;-75
2022/10/04 09:15:50;;;;;;;;;;;16.20;99.90;;;;;;5072948;28;19932;-74
2022/10/04 09:18:21;;;;;;;;;;;16.40;99.90;;;;;;5059956;28;20331;-72
2022/10/04 09:20:57;;;;;;;;;;;16.60;99.90;;;;;;5064217;28;19963;-74
2022/10/04 09:23:29;;;;;;;;;;;16.70;99.90;;;;;;5062178;28;19924;-75
2022/10/04 09:26:18;;;;;;;;;;;16.90;99.90;;;;;;5060388;28;19919;-75
2022/10/04 09:29:03;;;;;;;;;;;17.10;99.90;;;;;;5073528;28;19955;-74
2022/10/04 09:31:57;;;;;;;;;;;17.50;99.90;;;;;;5067144;28;19921;-75
2022/10/04 09:34:26;;;;;;;;;;;18.10;99.90;;;;;;5011470;28;19917;-73
2022/10/04 09:37:00;;;;;;;;;;;18.30;99.90;;;;;;5075776;28;20349;-74
2022/10/04 09:39:44;;;;;;;;;;;18.10;99.90;;;;;;5067376;28;19935;-74
2022/10/04 09:42:25;;;;;;;;;;;17.80;99.90;;;;;;5073238;28;19962;-74
2022/10/04 09:45:09;;;;;;;;;;;17.40;99.90;;;;;;5087870;28;19917;-75
2022/10/04 09:47:44;;;;;;;;;;;17.00;99.90;;;;;;5076153;28;19920;-74
2022/10/04 09:50:25;;;;;;;;;;;16.70;99.90;;;;;;5074526;28;19916;-74
2022/10/04 09:53:29;;;;;;;;;;;16.60;99.90;;;;;;5058453;28;19967;-74
2022/10/04 09:56:21;;;;;;;;;;;16.60;99.90;;;;;;5019688;28;19959;-73
2022/10/04 09:58:57;;;;;;;;;;;16.80;99.90;;;;;;5031622;28;19917;-74
2022/10/04 10:01:36;;;;;;;;;;;16.80;99.90;;;;;;5069895;28;19912;-73
2022/10/04 10:04:08;;;;;;;;;;;16.70;99.90;;;;;;5086277;28;19917;-74
2022/10/04 10:06:48;;;;;;;;;;;16.80;99.90;;;;;;5083932;28;19924;-74
2022/10/04 10:15:38;;;;;;;;;;;17.00;99.90;;;;;;5088766;28;19943;-74
2022/10/04 10:18:04;;;;;;;;;;;17.10;99.90;;;;;;5087676;28;19912;-73
2022/10/04 10:20:41;;;;;;;;;;;17.10;99.90;;;;;;5077605;28;19922;-73
2022/10/04 10:23:25;;;;;;;;;;;17.10;99.90;;;;;;5086443;28;19956;-74
2022/10/04 10:26:00;;;;;;;;;;;17.10;99.90;;;;;;5060069;28;19916;-74
2022/10/04 10:28:35;;;;;;;;;;;17.00;99.90;;;;;;5070175;28;19924;-74
2022/10/04 10:31:04;;;;;;;;;;;16.90;99.90;;;;;;5085990;28;19982;-74
2022/10/04 10:33:30;;;;;;;;;;;17.00;99.90;;;;;;5077907;28;20343;-73
2022/10/04 10:35:57;;;;;;;;;;;17.00;99.90;;;;;;5069735;28;19952;-74
2022/10/04 10:38:25;;;;;;;;;;;17.10;99.90;;;;;;5066106;28;20332;-74
2022/10/04 10:41:09;;;;;;;;;;;17.30;99.90;;;;;;5070826;28;19962;-73
2022/10/04 10:43:51;;;;;;;;;;;17.30;99.90;;;;;;5071113;28;20299;-74
2022/10/04 10:46:17;;;;;;;;;;;17.40;99.90;;;;;;5063129;28;19916;-73
2022/10/04 10:48:55;;;;;;;;;;;17.40;99.90;;;;;;5072538;28;19919;-74
2022/10/04 10:51:24;;;;;;;;;;;17.50;99.90;;;;;;5075592;28;19927;-74
2022/10/04 10:54:08;;;;;;;;;;;17.50;99.90;;;;;;5075103;28;20046;-73
2022/10/04 10:56:44;;;;;;;;;;;17.60;99.90;;;;;;5074985;28;19916;-72
2022/10/04 10:59:28;;;;;;;;;;;17.50;99.90;;;;;;5065741;28;19944;-73
2022/10/04 11:02:05;;;;;;;;;;;17.40;99.90;;;;;;5085647;28;19920;-73
2022/10/04 11:04:34;;;;;;;;;;;17.50;99.90;;;;;;5083278;28;19908;-73
2022/10/04 11:07:19;;;;;;;;;;;17.40;99.90;;;;;;5082181;28;19924;-74
2022/10/04 11:10:04;;;;;;;;;;;17.50;99.90;;;;;;5077686;28;19927;-74
2022/10/04 11:12:41;;;;;;;;;;;17.50;99.90;;;;;;5077550;28;19956;-74
2022/10/04 11:15:25;;;;;;;;;;;17.50;99.90;;;;;;5081904;28;19908;-73
2022/10/04 11:18:06;;;;;;;;;;;17.60;99.90;;;;;;5085680;28;19930;-72
2022/10/04 11:20:44;;;;;;;;;;;17.70;99.90;;;;;;5081858;28;19924;-73
2022/10/04 11:23:28;;;;;;;;;;;17.70;99.90;;;;;;5079808;28;19920;-73
2022/10/04 11:26:09;;;;;;;;;;;17.70;99.90;;;;;;5086972;28;19981;-73
2022/10/04 11:28:47;;;;;;;;;;;17.60;99.90;;;;;;5091446;28;19912;-73
2022/10/04 11:31:32;;;;;;;;;;;17.50;99.90;;;;;;5079998;28;19923;-73
2022/10/04 11:34:11;;;;;;;;;;;17.50;99.90;;;;;;5086740;28;19916;-72
2022/10/04 11:36:43;;;;;;;;;;;17.40;99.90;;;;;;5083616;28;19920;-73
2022/10/04 11:39:29;;;;;;;;;;;17.30;99.90;;;;;;5090131;28;19912;-72
2022/10/04 11:41:59;;;;;;;;;;;17.30;99.90;;;;;;5087585;28;19916;-72
2022/10/04 11:44:29;;;;;;;;;;;17.30;99.90;;;;;;5083062;28;19916;-72
2022/10/04 11:47:13;;;;;;;;;;;17.10;99.90;;;;;;5066328;28;19938;-72
2022/10/04 11:49:58;;;;;;;;;;;17.10;99.90;;;;;;5074698;28;19916;-73
2022/10/04 11:52:42;;;;;;;;;;;17.00;99.90;;;;;;5076548;28;20000;-72
2022/10/04 11:55:11;;;;;;;;;;;17.00;99.90;;;;;;5072270;28;20304;-73
2022/10/04 11:57:39;;;;;;;;;;;16.90;99.90;;;;;;5081566;28;20196;-73
2022/10/04 12:00:09;;;;;;;;;;;16.70;99.90;;;;;;5070130;28;19912;-73
2022/10/04 12:02:35;;;;;;;;;;;16.70;99.90;;;;;;5064454;28;19923;-73
2022/10/04 12:05:06;;;;;;;;;;;16.60;99.90;;;;;;5069824;28;19917;-73
2022/10/04 12:07:38;;;;;;;;;;;16.60;99.90;;;;;;5065991;28;19995;-73
2022/10/04 12:10:22;;;;;;;;;;;16.70;99.90;;;;;;5063849;28;19948;-73
2022/10/04 12:13:04;;;;;;;;;;;17.10;99.90;;;;;;5068069;28;19931;-74
2022/10/04 12:15:48;;;;;;;;;;;17.40;99.90;;;;;;5067650;28;19908;-73
2022/10/04 12:18:33;;;;;;;;;;;17.70;99.90;;;;;;5071943;28;19936;-73
2022/10/04 12:21:17;;;;;;;;;;;18.00;99.90;;;;;;5067782;28;19920;-73
2022/10/04 12:23:58;;;;;;;;;;;18.20;99.90;;;;;;5068552;28;20584;-73
2022/10/04 12:26:39;;;;;;;;;;;18.40;99.90;;;;;;5075672;28;19908;-72
2022/10/04 12:29:16;;;;;;;;;;;18.40;99.90;;;;;;5081830;28;19912;-73
2022/10/04 12:31:48;;;;;;;;;;;18.50;99.90;;;;;;5085586;28;19912;-73
2022/10/04 12:34:18;;;;;;;;;;;18.50;99.90;;;;;;5082011;28;19916;-73
2022/10/04 12:36:58;;;;;;;;;;;18.50;99.90;;;;;;5077851;28;19920;-72
2022/10/04 12:39:33;;;;;;;;;;;18.60;99.90;;;;;;5058246;28;20238;-73
2022/10/04 12:42:22;;;;;;;;;;;18.60;99.90;;;;;;5074601;28;19916;-75
2022/10/04 12:45:06;;;;;;;;;;;18.60;99.90;;;;;;5058688;28;20315;-72
2022/10/04 12:47:35;;;;;;;;;;;18.70;99.90;;;;;;5058653;28;19912;-72
2022/10/04 12:50:19;;;;;;;;;;;18.80;99.90;;;;;;5067778;28;19970;-73
2022/10/04 12:53:04;;;;;;;;;;;19.00;99.90;;;;;;5076297;28;19909;-72
2022/10/04 12:55:39;;;;;;;;;;;19.00;99.90;;;;;;5071154;28;20353;-73
2022/10/04 12:58:10;;;;;;;;;;;19.10;99.90;;;;;;5072890;28;19915;-73
2022/10/04 13:00:39;;;;;;;;;;;19.10;99.90;;;;;;5073221;28;19962;-73
2022/10/04 13:03:26;;;;;;;;;;;19.30;99.90;;;;;;5078223;28;19967;-74
2022/10/04 13:06:11;;;;;;;;;;;19.20;99.90;;;;;;5082236;28;19916;-74
2022/10/04 13:08:37;;;;;;;;;;;19.20;99.90;;;;;;5083002;28;19916;-73
2022/10/04 13:11:02;;;;;;;;;;;19.00;99.90;;;;;;5069694;28;19947;-74
2022/10/04 13:13:34;;;;;;;;;;;18.70;99.90;;;;;;5070686;28;19916;-73
2022/10/04 13:16:07;;;;;;;;;;;18.60;99.90;;;;;;5061692;28;20003;-74
2022/10/04 13:18:39;;;;;;;;;;;18.70;99.90;;;;;;5090493;28;20030;-73
2022/10/04 13:21:06;;;;;;;;;;;18.60;99.90;;;;;;5090086;28;19916;-73
2022/10/04 13:23:32;;;;;;;;;;;18.60;99.90;;;;;;5083125;28;19974;-72
2022/10/04 13:26:16;;;;;;;;;;;18.70;99.90;;;;;;5091199;28;19916;-74
2022/10/04 13:29:05;;;;;;;;;;;18.70;99.90;;;;;;5085942;28;19909;-73
2022/10/04 13:31:37;;;;;;;;;;;18.50;99.90;;;;;;5062271;28;19912;-73
2022/10/04 13:34:18;;;;;;;;;;;18.50;99.90;;;;;;5077560;28;20266;-74
2022/10/04 13:36:59;;;;;;;;;;;18.40;99.90;;;;;;5067958;28;19908;-73
2022/10/04 13:39:24;;;;;;;;;;;18.40;99.90;;;;;;5078640;28;20353;-73
2022/10/04 13:42:01;;;;;;;;;;;18.40;99.90;;;;;;5079184;28;19916;-72
2022/10/04 13:44:42;;;;;;;;;;;18.40;99.90;;;;;;5077270;28;19917;-72
2022/10/04 13:47:27;;;;;;;;;;;18.30;99.90;;;;;;5077955;28;19913;-75
2022/10/04 13:50:02;;;;;;;;;;;18.30;99.90;;;;;;5070644;28;20219;-73
2022/10/04 13:57:59;;;;;;;;;;;18.10;99.90;;;;;;5077030;28;19915;-73
2022/10/04 14:00:28;;;;;;;;;;;18.10;99.90;;;;;;5090411;28;21368;-73
2022/10/04 14:03:12;;;;;;;;;;;18.10;99.90;;;;;;5084144;28;20227;-73
2022/10/04 14:05:56;;;;;;;;;;;18.00;99.90;;;;;;5081241;28;20266;-73
2022/10/04 14:08:24;;;;;;;;;;;17.80;99.90;;;;;;5083177;28;19912;-73
2022/10/04 14:11:06;;;;;;;;;;;18.00;99.90;;;;;;5082644;28;19923;-73
2022/10/04 14:13:35;;;;;;;;;;;18.00;99.90;;;;;;5084555;28;19912;-73
2022/10/04 14:16:23;;;;;;;;;;;18.00;99.90;;;;;;5075490;28;20320;-73
2022/10/04 14:19:08;;;;;;;;;;;18.00;99.90;;;;;;5038066;28;21464;-73
2022/10/04 14:21:33;;;;;;;;;;;18.00;99.90;;;;;;5084913;28;19920;-73
2022/10/04 14:24:05;;;;;;;;;;;18.10;99.90;;;;;;5076867;28;20312;-73
2022/10/04 14:27:07;;;;;;;;;;;18.10;99.90;;;;;;5085647;28;19912;-73
2022/10/04 14:29:47;;;;;;;;;;;18.20;99.90;;;;;;5006615;28;19936;-74
2022/10/04 14:32:39;;;;;;;;;;;18.30;99.90;;;;;;5066972;28;19912;-73
2022/10/04 14:35:17;;;;;;;;;;;18.30;99.90;;;;;;5082395;28;20322;-73
2022/10/04 14:37:45;;;;;;;;;;;18.30;99.90;;;;;;5088298;28;19961;-72
2022/10/04 14:40:20;;;;;;;;;;;18.30;99.90;;;;;;5090672;28;19912;-73
2022/10/04 14:42:52;;;;;;;;;;;18.20;99.90;;;;;;5090982;28;19919;-72
2022/10/04 14:45:27;;;;;;;;;;;18.20;99.90;;;;;;5089512;28;19923;-73
2022/10/04 14:48:04;;;;;;;;;;;18.10;99.90;;;;;;5092424;28;20446;-73
2022/10/04 14:50:59;;;;;;;;;;;18.00;99.90;;;;;;5094173;28;19912;-74
2022/10/04 14:53:31;;;;;;;;;;;18.00;99.90;;;;;;5075331;28;19916;-73
2022/10/04 14:56:03;;;;;;;;;;;17.90;99.90;;;;;;5076321;28;19921;-73
2022/10/04 14:58:29;;;;;;;;;;;17.90;99.90;;;;;;5075925;28;19922;-73
2022/10/04 15:00:58;;;;;;;;;;;17.90;99.90;;;;;;5075197;28;19909;-73
2022/10/04 15:03:47;;;;;;;;;;;17.90;99.90;;;;;;5074304;28;19916;-73
2022/10/04 15:06:12;;;;;;;;;;;17.90;99.90;;;;;;5067698;28;19919;-73
2022/10/04 15:08:44;;;;;;;;;;;17.80;99.90;;;;;;5071312;28;19920;-72
2022/10/04 15:11:16;;;;;;;;;;;17.80;99.90;;;;;;5066725;28;20265;-72
2022/10/04 15:13:54;;;;;;;;;;;17.70;99.90;;;;;;5070117;28;19913;-73
2022/10/04 15:16:39;;;;;;;;;;;17.70;99.90;;;;;;5069399;28;19922;-74